Time;durP1;ratioP1;P1;durP2;ratioP2;P2;SDS_P1;SDS_P2;PMS_P1;PMS_P2;Temp;Humidity;BMP_temperature;BMP_pressure;BME280_temperature;BME280_humidity;BME280_pressure;Samples;Min_cycle;Max_cycle;Signal;HPM_P1;HPM_P2
2022/01/16 00:05:11;;;;;;;4.43;3.58;;;;;;;7.33;67.68;101091.72;6211660;23;20376;-78
2022/01/16 00:07:36;;;;;;;3.78;3.47;;;;;;;7.46;67.74;101101.59;6212696;23;20116;-78
2022/01/16 00:10:06;;;;;;;3.15;2.95;;;;;;;7.46;68.03;101094.28;6210712;23;20087;-79
2022/01/16 00:12:39;;;;;;;3.63;3.42;;;;;;;7.39;68.56;101070.91;6213394;23;20013;-78
2022/01/16 00:15:08;;;;;;;3.38;3.17;;;;;;;7.41;68.74;101075.06;6211391;23;20005;-77
2022/01/16 00:17:45;;;;;;;;;;;;;;;;;;;;;
2022/01/16 00:20:11;;;;;;;2.97;2.65;;;;;;;7.54;68.09;101084.97;6214980;23;20660;-78
2022/01/16 00:22:41;;;;;;;4.57;4.18;;;;;;;7.60;67.62;101070.44;6210197;23;20092;-77
2022/01/16 00:25:15;;;;;;;2.58;2.47;;;;;;;7.66;67.52;101076.84;6211404;23;20020;-78
2022/01/16 00:27:45;;;;;;;2.47;2.28;;;;;;;7.78;68.66;101088.63;6210639;23;20040;-77
2022/01/16 00:30:14;;;;;;;1.98;1.83;;;;;;;7.69;68.32;101070.94;6212288;23;20599;-80
2022/01/16 00:32:39;;;;;;;2.22;2.13;;;;;;;7.86;68.67;101096.44;6211199;23;20000;-75
2022/01/16 00:35:14;;;;;;;1.65;1.55;;;;;;;8.00;68.43;101098.97;6212004;23;20015;-77
2022/01/16 00:37:57;;;;;;;;;;;;;;;;;;;;;
2022/01/16 00:40:34;;;;;;;3.72;3.53;;;;;;;8.11;68.04;101109.09;6211718;23;20079;-76
2022/01/16 00:43:16;;;;;;;3.42;3.22;;;;;;;7.96;67.73;101081.47;6211844;23;20000;-76
2022/01/16 00:45:51;;;;;;;3.47;2.70;;;;;;;8.00;68.47;101088.06;6187420;23;20004;-77
2022/01/16 00:48:16;;;;;;;3.42;2.85;;;;;;;8.06;67.46;101086.31;6212046;23;20005;-80
2022/01/16 00:50:42;;;;;;;1.92;1.83;;;;;;;8.12;67.35;101090.84;6214475;23;20296;-81
2022/01/16 00:53:18;;;;;;;2.17;1.98;;;;;;;8.12;67.52;101086.22;6215692;23;20000;-83
2022/01/16 00:55:52;;;;;;;3.78;3.58;;;;;;;8.11;67.43;101089.19;6215663;23;20509;-80
2022/01/16 00:58:21;;;;;;;5.20;4.73;;;;;;;8.24;67.66;101116.22;6212188;23;20076;-80
2022/01/16 01:00:47;;;;;;;6.60;4.78;;;;;;;8.07;68.18;101061.56;6214680;23;20039;-81
2022/01/16 01:03:14;;;;;;;4.60;4.22;;;;;;;8.13;67.70;101076.16;6214557;23;20039;-80
2022/01/16 01:05:39;;;;;;;4.97;4.57;;;;;;;8.10;68.03;101099.25;6215114;23;20008;-80
2022/01/16 01:08:05;;;;;;;6.47;4.93;;;;;;;8.08;68.42;101085.03;6213563;23;20016;-80
2022/01/16 01:10:39;;;;;;;10.18;6.85;;;;;;;8.07;68.23;101072.47;6213603;23;20428;-81
2022/01/16 01:13:22;;;;;;;10.00;8.15;;;;;;;7.91;69.66;101063.06;6211647;23;20000;-80
2022/01/16 01:15:51;;;;;;;10.65;6.72;;;;;;;8.07;69.49;101083.38;6211336;23;20028;-80
2022/01/16 01:18:24;;;;;;;7.82;6.93;;;;;;;8.01;70.42;101090.56;6212823;23;20009;-80
2022/01/16 01:20:57;;;;;;;8.73;7.70;;;;;;;7.99;70.21;101073.63;6189557;23;20018;-80
2022/01/16 01:23:23;;;;;;;10.38;7.15;;;;;;;7.97;70.13;101100.28;6213246;23;20047;-80
2022/01/16 01:25:52;;;;;;;9.60;6.75;;;;;;;8.11;70.27;101103.63;6212456;23;20000;-80
2022/01/16 01:28:17;;;;;;;5.82;5.43;;;;;;;8.15;70.81;101118.47;6187658;23;20062;-80
2022/01/16 01:30:44;;;;;;;7.97;7.20;;;;;;;8.05;70.08;101118.19;6187247;23;20008;-77
2022/01/16 01:33:13;;;;;;;6.32;5.72;;;;;;;8.06;70.19;101103.50;6212533;23;20012;-78
2022/01/16 01:35:43;;;;;;;4.35;4.07;;;;;;;8.20;70.15;101121.28;6213790;23;20367;-77
2022/01/16 01:38:26;;;;;;;5.03;4.63;;;;;;;8.12;70.39;101063.59;6187553;23;20257;-76
2022/01/16 01:40:52;;;;;;;8.00;5.70;;;;;;;8.15;70.12;100975.97;6161920;23;20086;-78
2022/01/16 01:51:44;;;;;;;8.88;6.82;;;;;;;8.19;70.86;100994.31;6213895;23;20088;-76
2022/01/16 01:54:11;;;;;;;13.20;8.63;;;;;;;8.19;71.29;101048.81;6219616;23;20004;-77
2022/01/16 01:56:39;;;;;;;17.33;9.65;;;;;;;8.07;72.18;101067.03;6195488;23;20016;-78
2022/01/16 01:59:05;;;;;;;20.00;9.85;;;;;;;8.09;72.06;101058.63;6217569;23;20008;-77
2022/01/16 02:01:36;;;;;;;13.80;8.57;;;;;;;8.03;72.67;101093.91;6191500;23;20013;-77
2022/01/16 02:04:02;;;;;;;12.13;8.63;;;;;;;7.94;72.43;101076.22;6212710;23;20043;-76
2022/01/16 02:06:30;;;;;;;9.32;7.60;;;;;;;7.94;72.41;101075.41;6216034;23;20005;-78
2022/01/16 02:09:03;;;;;;;5.65;5.30;;;;;;;7.92;72.17;101074.81;6215787;23;20005;-76
2022/01/16 02:11:31;;;;;;;6.78;6.07;;;;;;;7.96;72.01;101105.97;6217991;23;20004;-78
2022/01/16 02:14:52;;;;;;;11.43;7.10;;;;;;;7.96;72.29;101095.09;6218772;23;20725;-77
2022/01/16 02:28:23;;;;;;;3.10;2.90;;;;;;;7.87;72.36;101119.09;6213487;23;20450;-76
2022/01/16 02:38:51;;;;;;;9.35;6.72;;;;;;;7.74;73.52;101120.09;6223292;23;20000;-76
2022/01/16 02:41:17;;;;;;;8.02;6.28;;;;;;;7.76;72.92;101109.78;6210321;23;20027;-76
2022/01/16 02:43:50;;;;;;;9.50;8.50;;;;;;;7.75;73.25;101121.72;6213955;23;20011;-76
2022/01/16 02:48:44;;;;;;;7.82;6.95;;;;;;;7.85;73.33;101113.84;6211738;23;20327;-76
2022/01/16 02:51:15;;;;;;;5.70;5.18;;;;;;;7.86;72.98;101093.72;6213156;23;20005;-77
2022/01/16 02:53:44;;;;;;;5.60;5.25;;;;;;;7.86;72.71;101082.84;6212727;23;20048;-78
2022/01/16 02:56:09;;;;;;;5.43;4.95;;;;;;;7.95;73.48;101096.13;6211844;23;20087;-77
2022/01/16 02:58:35;;;;;;;3.20;3.00;;;;;;;7.96;72.74;101100.53;6210160;23;20028;-77
2022/01/16 03:01:00;;;;;;;3.50;2.42;;;;;;;7.93;72.40;101093.63;6212782;23;20012;-76
2022/01/16 03:03:26;;;;;;;1.92;1.83;;;;;;;7.91;72.96;101093.03;6211959;23;20008;-76
2022/01/16 03:05:51;;;;;;;1.80;1.70;;;;;;;7.96;72.73;101098.63;6212151;23;19997;-76
2022/01/16 03:08:17;;;;;;;1.48;1.38;;;;;;;7.85;72.68;101081.16;6211481;23;20017;-77
2022/01/16 03:13:08;;;;;;;3.92;2.90;;;;;;;7.83;73.15;101072.41;6221598;23;20015;-76
2022/01/16 03:15:36;;;;;;;5.93;5.32;;;;;;;7.89;73.59;101086.19;6210998;23;20852;-77
2022/01/16 03:23:24;;;;;;;4.10;3.88;;;;;;;7.77;72.46;101084.22;6214621;23;20015;-75
2022/01/16 03:25:50;;;;;;;4.60;4.20;;;;;;;7.58;72.59;101047.22;6215672;23;20009;-76
2022/01/16 03:28:16;;;;;;;4.72;4.43;;;;;;;7.77;73.07;101073.34;6217543;23;20000;-76
2022/01/16 03:30:42;;;;;;;6.00;3.70;;;;;;;7.66;72.61;101055.06;6216851;23;20005;-76
2022/01/16 03:33:08;;;;;;;2.92;2.72;;;;;;;7.71;73.14;101063.38;6213107;23;20031;-76
2022/01/16 03:35:42;;;;;;;2.78;2.67;;;;;;;7.51;73.03;101020.09;6213534;23;20328;-75
2022/01/16 03:38:10;;;;;;;3.42;3.13;;;;;;;7.62;72.75;101051.13;6211771;23;20004;-76
2022/01/16 03:40:36;;;;;;;3.30;3.10;;;;;;;7.53;72.45;101039.75;6212264;23;20048;-77
2022/01/16 03:43:14;;;;;;;3.05;2.85;;;;;;;7.34;73.28;101033.50;6209895;23;20087;-76
2022/01/16 03:46:13;;;;;;;5.55;5.07;;;;;;;7.33;73.17;101034.59;6212068;23;20000;-76
2022/01/16 03:48:39;;;;;;;5.50;4.97;;;;;;;7.25;72.44;101040.34;6207292;23;20011;-75
2022/01/16 03:51:07;;;;;;;5.78;5.22;;;;;;;7.27;73.50;101054.53;6211077;23;20304;-76
2022/01/16 03:53:44;;;;;;;6.38;5.43;;;;;;;7.03;73.17;101029.09;6211637;23;20332;-77
2022/01/16 03:56:09;;;;;;;5.47;5.07;;;;;;;7.05;73.89;101051.47;6210591;23;20004;-76
2022/01/16 03:58:35;;;;;;;3.72;3.42;;;;;;;6.92;73.35;101038.84;6211973;23;20035;-77
2022/01/16 04:01:10;;;;;;;5.18;4.72;;;;;;;6.79;74.13;101046.09;6207456;23;20067;-76
2022/01/16 04:03:35;;;;;;;8.68;7.68;;;;;;;6.76;74.19;101048.41;6213503;23;20439;-77
2022/01/16 04:06:20;;;;;;;7.78;7.18;;;;;;;6.68;74.06;101049.56;6188024;23;20019;-76
2022/01/16 04:08:55;;;;;;;10.48;7.05;;;;;;;6.79;74.12;101067.84;6213595;23;20009;-77
2022/01/16 04:11:26;;;;;;;7.85;6.63;;;;;;;6.85;74.33;101087.00;6218788;23;20024;-77
2022/01/16 04:14:04;;;;;;;5.85;5.35;;;;;;;6.81;74.19;101076.59;6215146;23;19996;-77
2022/01/16 04:16:30;;;;;;;6.20;5.63;;;;;;;6.81;74.43;101082.03;6213896;23;19996;-76
2022/01/16 04:18:56;;;;;;;12.43;6.32;;;;;;;6.80;75.09;101069.53;6210492;23;20009;-77
2022/01/16 04:21:37;;;;;;;;;;;;;;;;;;;;;
2022/01/16 04:24:03;;;;;;;8.38;6.43;;;;;;;6.60;74.47;101052.56;6211785;23;20083;-76
2022/01/16 04:26:31;;;;;;;7.00;6.28;;;;;;;6.59;74.55;101045.47;6211257;23;20099;-77
2022/01/16 04:28:59;;;;;;;10.27;6.75;;;;;;;6.60;74.98;101058.00;6187729;23;20020;-77
2022/01/16 04:31:24;;;;;;;6.38;5.60;;;;;;;6.54;75.36;101053.44;6212382;23;19996;-76
2022/01/16 04:33:52;;;;;;;6.43;5.93;;;;;;;6.47;75.03;101043.47;6210676;23;20005;-76
2022/01/16 04:36:18;;;;;;;7.30;5.47;;;;;;;6.51;74.69;101053.91;6214135;23;20001;-77
2022/01/16 04:38:52;;;;;;;6.40;5.45;;;;;;;6.49;74.92;101047.88;6187161;23;20088;-76
2022/01/16 04:44:14;;;;;;;5.15;3.00;;;;;;;6.51;75.83;101048.47;6212621;23;20183;-77
2022/01/16 04:46:59;;;;;;;1.92;1.83;;;;;;;6.58;75.42;101054.66;6211418;23;20338;-76
2022/01/16 04:49:25;;;;;;;2.80;2.60;;;;;;;6.42;75.20;101034.34;6212604;23;20005;-77
2022/01/16 04:51:51;;;;;;;4.75;4.45;;;;;;;6.47;76.01;101053.53;6212922;23;20009;-76
2022/01/16 04:57:30;;;;;;;8.38;6.13;;;;;;;6.21;75.01;101011.97;6199226;23;20087;-78
2022/01/16 04:59:56;;;;;;;6.00;4.38;;;;;;;6.31;75.31;101027.75;6187653;23;20008;-76
2022/01/16 05:02:34;;;;;;;;;;;;;;;;;;;;;
2022/01/16 05:05:02;;;;;;;3.45;3.25;;;;;;;6.09;75.74;101002.91;6214081;23;20079;-77
2022/01/16 05:07:33;;;;;;;2.17;2.08;;;;;;;6.01;75.76;100993.13;6214237;23;20004;-76
2022/01/16 05:10:13;;;;;;;;;;;;;;;;;;;;;
2022/01/16 05:12:42;;;;;;;1.80;1.70;;;;;;;5.93;74.96;100998.81;6227876;23;20027;-76
2022/01/16 07:23:53;;;;;;;;;;;;;;;;;;;;;
2022/01/16 07:26:32;;;;;;;;;;;;;;;;;;;;;
2022/01/16 07:29:05;;;;;;;2.65;2.55;;;;;;;6.36;74.23;101163.75;5927418;23;20081;-76
2022/01/16 07:31:41;;;;;;;;;;;;;;;;;;;;;
2022/01/16 07:34:07;;;;;;;3.60;3.38;;;;;;;6.28;74.60;101158.59;6072374;23;20080;-76
2022/01/16 07:36:33;;;;;;;2.88;2.67;;;;;;;6.27;75.21;101157.75;6192456;23;20079;-75
2022/01/16 07:38:59;;;;;;;2.85;2.65;;;;;;;6.36;75.21;101177.31;6186723;23;20036;-76
2022/01/16 07:41:25;;;;;;;2.38;1.98;;;;;;;6.49;75.46;101202.75;6187238;23;20103;-75
2022/01/16 07:44:00;;;;;;;1.27;1.27;;;;;;;6.51;75.54;101195.19;6195245;23;20079;-77
2022/01/16 07:46:52;;;;;;;0.90;0.90;;;;;;;6.59;74.95;101197.66;6194738;23;20007;-79
2022/01/16 07:49:17;;;;;;;1.15;1.13;;;;;;;6.62;74.14;101197.22;6194152;23;20415;-78
2022/01/16 07:51:43;;;;;;;1.08;1.08;;;;;;;6.60;74.60;101183.00;6194117;23;20019;-78
2022/01/16 07:54:10;;;;;;;0.82;0.82;;;;;;;6.66;74.99;101182.13;6190347;23;20044;-77
2022/01/16 07:56:39;;;;;;;1.40;1.30;;;;;;;6.78;74.98;101185.78;6173829;23;20023;-75
2022/01/16 07:59:17;;;;;;;1.05;1.05;;;;;;;6.92;74.03;101196.53;6211648;23;20007;-78
2022/01/16 08:01:51;;;;;;;0.70;0.70;;;;;;;6.85;74.08;101184.88;6211159;23;20004;-76
2022/01/16 08:04:24;;;;;;;1.60;1.50;;;;;;;7.09;75.11;101213.13;6210732;23;20036;-74
2022/01/16 08:07:12;;;;;;;;;;;;;;;;;;;;;
2022/01/16 08:09:47;;;;;;;0.98;0.98;;;;;;;7.08;74.04;101203.31;6213576;23;20080;-74
2022/01/16 08:12:14;;;;;;;0.70;0.70;;;;;;;7.10;74.04;101204.75;6213513;23;20004;-77
2022/01/16 08:14:42;;;;;;;0.90;0.90;;;;;;;7.15;73.90;101193.19;6200212;23;20008;-83
2022/01/16 08:17:08;;;;;;;1.17;1.17;;;;;;;7.18;73.62;101189.19;6220909;23;20016;-77
2022/01/16 08:19:44;;;;;;;0.95;0.95;;;;;;;7.24;73.90;101201.91;6215168;23;20009;-79
2022/01/16 08:22:10;;;;;;;0.65;0.65;;;;;;;7.21;74.53;101188.75;6212793;23;20011;-79
2022/01/16 08:24:36;;;;;;;0.60;0.60;;;;;;;7.22;74.69;101184.97;6211724;23;20021;-78
2022/01/16 08:27:04;;;;;;;0.63;0.63;;;;;;;7.35;74.16;101212.03;6211564;23;20028;-76
2022/01/16 08:29:34;;;;;;;0.73;0.73;;;;;;;7.51;73.73;101233.22;6212812;23;20024;-78
2022/01/16 08:32:03;;;;;;;1.42;1.33;;;;;;;7.53;74.07;101238.44;6187755;23;20028;-79
2022/01/16 08:34:29;;;;;;;1.20;1.20;;;;;;;7.50;73.99;101242.47;6187978;23;20019;-76
2022/01/16 08:37:20;;;;;;;1.13;1.10;;;;;;;7.62;73.99;101255.28;6211076;23;20005;-79
2022/01/16 08:39:56;;;;;;;0.60;0.60;;;;;;;7.42;73.58;101229.13;6211040;23;20010;-77
2022/01/16 08:42:43;;;;;;;;;;;;;;;;;;;;;
2022/01/16 08:45:12;;;;;;;2.15;1.98;;;;;;;7.70;73.53;101265.91;6212591;23;20108;-75
2022/01/16 08:47:44;;;;;;;2.65;2.55;;;;;;;7.63;73.30;101254.25;6212300;23;20004;-77
2022/01/16 08:50:32;;;;;;;2.67;2.58;;;;;;;7.72;73.62;101263.78;6185181;23;20095;-77
2022/01/16 08:53:04;;;;;;;2.60;2.50;;;;;;;7.61;73.38;101242.75;6212823;23;20008;-77
2022/01/16 08:55:38;;;;;;;2.10;2.00;;;;;;;7.71;73.57;101258.56;6208794;23;20000;-76
2022/01/16 08:58:10;;;;;;;2.20;2.10;;;;;;;7.65;73.60;101239.34;6206253;23;20004;-77
2022/01/16 09:01:19;;;;;;;;;;;;;;;;;;;;;
2022/01/16 09:03:47;;;;;;;0.80;0.80;;;;;;;7.81;72.93;101258.84;6216749;23;20020;-80
2022/01/16 09:06:20;;;;;;;0.50;0.50;;;;;;;7.97;73.22;101284.66;6211827;23;20004;-80
2022/01/16 09:08:54;;;;;;;2.17;2.08;;;;;;;8.04;73.46;101301.75;6207432;23;19996;-79
2022/01/16 09:11:29;;;;;;;3.43;3.20;;;;;;;7.91;73.30;101275.50;6218262;23;20008;-73
2022/01/16 09:14:05;;;;;;;;;;;;;;;;;;;;;
2022/01/16 09:16:33;;;;;;;4.88;4.57;;;;;;;8.06;72.85;101299.66;6232135;23;20226;-74
2022/01/16 09:18:59;;;;;;;5.00;4.60;;;;;;;8.02;72.43;101298.44;6218944;23;20416;-75
2022/01/16 09:21:56;;;;;;;;;;;;;;;;;;;;;
2022/01/16 10:58:54;;;;;;;2.75;2.08;;;;;;;12.44;62.28;101426.47;6022621;23;20015;-77
2022/01/16 11:05:46;;;;;;;2.42;2.22;;;;;;;12.39;62.62;101424.50;5908138;23;20014;-77
2022/01/16 11:09:09;;;;;;;;;;;;;;;;;;;;;
2022/01/16 11:22:55;;;;;;;;;;;;;;;;;;;;;
2022/01/16 11:28:20;;;;;;;2.30;2.15;;;;;;;18.02;51.04;101470.50;6020366;23;20002;-73
2022/01/16 11:31:37;;;;;;;;;;;;;;;;;;;;;
2022/01/16 14:18:39;;;;;;;4.60;1.20;;;;;;;15.48;43.35;101565.38;6005799;23;20022;-76
2022/01/16 14:24:28;;;;;;;;;;;;;;;;;;;;;
2022/01/16 14:34:12;;;;;;;;;;;;;;;;;;;;;
2022/01/16 14:37:29;;;;;;;1.15;1.05;;;;;;;14.75;47.39;101595.63;6044953;23;20478;-73
2022/01/16 14:47:23;;;;;;;;;;;;;;;;;;;;;
2022/01/16 14:50:20;;;;;;;2.80;2.42;;;;;;;14.49;48.28;101610.00;6220384;23;20412;-73
2022/01/16 14:53:24;;;;;;;;;;;;;;;;;;;;;
2022/01/16 14:56:03;;;;;;;;;;;;;;;;;;;;;
2022/01/16 14:59:00;;;;;;;;;;;;;;;;;;;;;
2022/01/16 15:02:28;;;;;;;;;;;;;;;;;;;;;
2022/01/16 15:05:41;;;;;;;3.13;2.33;;;;;;;13.24;51.50;101622.72;6190619;23;20029;-74
2022/01/16 15:08:33;;;;;;;;;;;;;;;;;;;;;
2022/01/16 15:18:15;;;;;;;;;;;;;;;;;;;;;
2022/01/16 15:21:58;;;;;;;;;;;;;;;;;;;;;
2022/01/16 16:02:36;;;;;;;;;;;;;;;;;;;;;
2022/01/16 16:05:48;;;;;;;4.03;1.60;;;;;;;11.66;58.44;101691.06;5771510;24;20031;-74
2022/01/16 16:25:44;;;;;;;3.80;2.55;;;;;;;10.45;61.05;101713.44;5874136;24;20010;-76
2022/01/16 16:35:49;;;;;;;;;;;;;;;;;;;;;
2022/01/16 16:38:20;;;;;;;2.58;2.38;;;;;;;9.93;63.16;101749.47;5885126;24;20035;-78
2022/01/16 16:41:07;;;;;;;3.28;2.97;;;;;;;9.69;64.31;101732.09;5951519;23;20015;-80
2022/01/16 16:44:28;;;;;;;;;;;;;;;;;;;;;
2022/01/16 16:58:09;;;;;;;;;;;;;;;;;;;;;
2022/01/16 17:01:59;;;;;;;;;;;;;;;;;;;;;
2022/01/16 17:05:10;;;;;;;4.82;4.43;;;;;;;9.64;68.64;101797.50;5870889;24;20155;-75
2022/01/16 17:08:45;;;;;;;;;;;;;;;;;;;;;
2022/01/16 19:15:03;;;;;;;6.47;6.03;;;;;;;9.01;73.48;101957.56;6185871;22;20490;-75
2022/01/16 19:17:32;;;;;;;11.13;6.88;;;;;;;8.99;73.57;101956.97;6183087;23;20012;-75
2022/01/16 19:19:58;;;;;;;6.50;6.10;;;;;;;8.96;72.97;101965.59;6182595;23;20020;-79
2022/01/16 19:22:26;;;;;;;6.75;6.22;;;;;;;9.07;73.29;101992.19;6158882;23;20005;-80
2022/01/16 19:24:59;;;;;;;6.70;6.30;;;;;;;8.96;73.13;101979.25;6132893;23;20005;-78
2022/01/16 19:27:30;;;;;;;7.35;6.53;;;;;;;8.83;73.57;101975.50;6155381;23;20005;-75
2022/01/16 19:29:55;;;;;;;6.22;5.70;;;;;;;8.90;73.30;101998.13;6131820;23;20432;-77
2022/01/16 19:32:21;;;;;;;6.40;5.80;;;;;;;8.82;73.53;101994.81;6151338;23;20013;-74
2022/01/16 19:41:47;;;;;;;6.53;6.03;;;;;;;8.88;73.16;102011.16;6129657;23;20551;-76
2022/01/16 19:44:32;;;;;;;7.32;6.65;;;;;;;8.97;72.99;102013.66;6182879;23;20001;-77
2022/01/16 19:46:57;;;;;;;10.90;7.15;;;;;;;9.14;73.34;102028.50;6180788;23;20012;-76
2022/01/16 19:49:23;;;;;;;12.40;7.72;;;;;;;9.16;73.00;102042.75;6148549;23;20009;-74
2022/01/16 19:51:51;;;;;;;11.70;8.35;;;;;;;9.10;73.23;102024.50;6179372;23;20007;-76
2022/01/16 19:54:25;;;;;;;8.48;7.55;;;;;;;9.19;72.85;102036.84;6130639;23;20091;-74
2022/01/16 20:08:00;;;;;;;;;;;;;;;;;;;;;
2022/01/16 20:11:08;;;;;;;6.05;5.55;;;;;;;9.08;72.65;102070.28;6031880;23;20090;-78
2022/01/16 20:17:01;;;;;;;6.40;5.50;;;;;;;8.78;72.36;102070.78;6001850;23;20019;-76
2022/01/16 20:22:44;;;;;;;4.43;4.00;;;;;;;8.54;71.71;102075.88;6136476;23;20010;-78
2022/01/16 20:25:49;;;;;;;;;;;;;;;;;;;;;
2022/01/16 20:28:53;;;;;;;4.78;4.47;;;;;;;8.26;71.99;102067.06;6144413;23;20372;-75
2022/01/16 20:39:20;;;;;;;;;;;;;;;;;;;;;
2022/01/16 20:59:40;;;;;;;;;;;;;;;;;;;;;
2022/01/16 21:02:25;;;;;;;;;;;;;;;;;;;;;
2022/01/16 21:05:29;;;;;;;;;;;;;;;;;;;;;
2022/01/16 21:08:19;;;;;;;;;;;;;;;;;;;;;
2022/01/16 21:14:39;;;;;;;1.00;1.00;;;;;;;7.09;73.31;102140.69;6029790;23;20058;-74
2022/01/16 21:20:26;;;;;;;1.92;1.23;;;;;;;7.32;72.98;102160.28;6183380;23;20346;-76
2022/01/16 21:23:00;;;;;;;1.23;1.17;;;;;;;7.42;72.51;102154.47;6193071;23;20088;-76
2022/01/16 21:26:01;;;;;;;1.95;1.20;;;;;;;7.46;73.03;102144.88;6170377;23;20049;-75
2022/01/16 21:28:45;;;;;;;3.90;0.85;;;;;;;7.76;72.20;102181.84;6192449;23;20367;-75
2022/01/16 21:34:43;;;;;;;;;;;;;;;;;;;;;
2022/01/16 21:41:25;;;;;;;;;;;;;;;;;;;;;
2022/01/16 21:47:37;;;;;;;;;;;;;;;;;;;;;
2022/01/16 21:50:39;;;;;;;1.73;1.30;;;;;;;8.12;71.35;102176.06;6219395;23;20487;-76
2022/01/16 21:53:14;;;;;;;3.50;2.13;;;;;;;8.06;71.22;102171.44;6190609;23;20034;-75
2022/01/16 21:56:20;;;;;;;;;;;;;;;;;;;;;
2022/01/16 21:58:51;;;;;;;6.85;2.17;;;;;;;8.03;70.30;102199.09;6221891;23;20035;-76
2022/01/16 22:01:27;;;;;;;;;;;;;;;;;;;;;
2022/01/16 22:04:29;;;;;;;;;;;;;;;;;;;;;
2022/01/16 22:07:43;;;;;;;;;;;;;;;;;;;;;
2022/01/16 22:10:11;;;;;;;2.55;1.73;;;;;;;7.45;68.37;102164.97;6216968;23;20331;-75
2022/01/16 22:13:03;;;;;;;7.32;1.35;;;;;;;7.44;68.19;102185.03;6192082;23;20016;-75
2022/01/16 22:15:30;;;;;;;3.35;0.82;;;;;;;7.45;67.69;102197.63;6184173;23;20398;-72
2022/01/16 22:18:06;;;;;;;3.03;0.98;;;;;;;7.34;67.16;102192.75;6189406;23;20009;-76
2022/01/16 22:23:48;;;;;;;6.82;1.67;;;;;;;7.15;66.55;102180.69;6172650;23;20011;-75
2022/01/16 22:26:43;;;;;;;;;;;;;;;;;;;;;
2022/01/16 22:29:31;;;;;;;2.72;1.00;;;;;;;7.01;66.96;102185.22;6189465;23;20069;-76
2022/01/16 22:34:51;;;;;;;5.88;0.95;;;;;;;7.01;65.88;102207.00;6172671;23;20009;-76
2022/01/16 22:37:56;;;;;;;;;;;;;;;;;;;;;
2022/01/16 22:40:53;;;;;;;;;;;;;;;;;;;;;
2022/01/16 22:44:13;;;;;;;2.67;1.02;;;;;;;7.03;66.23;102226.66;6190148;23;20024;-76
2022/01/16 22:46:22;;;;;;;4.07;0.73;;;;;;;7.14;65.92;102245.16;6168526;23;20009;-74
2022/01/16 22:49:56;;;;;;;2.42;0.80;;;;;;;7.24;65.74;102265.72;6191461;23;20036;-78
2022/01/16 22:53:22;;;;;;;;;;;;;;;;;;;;;
2022/01/16 22:56:47;;;;;;;;;;;;;;;;;;;;;
2022/01/16 22:59:31;;;;;;;0.55;0.20;;;;;;;7.26;65.55;102290.88;6182617;23;20043;-75
2022/01/16 23:01:58;;;;;;;0.63;0.55;;;;;;;7.15;65.24;102271.34;6187738;23;20005;-77
2022/01/16 23:04:25;;;;;;;0.32;0.17;;;;;;;7.22;66.38;102286.88;6186825;23;20011;-76
2022/01/16 23:06:50;;;;;;;0.20;0.13;;;;;;;7.15;65.44;102278.66;6185115;23;20016;-76
2022/01/16 23:09:17;;;;;;;0.20;0.10;;;;;;;7.17;65.94;102282.03;6155735;23;20072;-77
2022/01/16 23:11:45;;;;;;;0.38;0.10;;;;;;;7.19;65.30;102290.00;6181825;23;20013;-74
2022/01/16 23:14:12;;;;;;;0.57;0.35;;;;;;;7.21;65.48;102301.50;6188465;23;20023;-73
2022/01/16 23:16:41;;;;;;;0.68;0.32;;;;;;;7.16;66.21;102296.66;6170139;23;20017;-78
2022/01/16 23:19:15;;;;;;;4.10;0.50;;;;;;;7.12;65.69;102279.88;6200610;23;20008;-77
2022/01/16 23:21:48;;;;;;;1.33;0.40;;;;;;;7.18;65.31;102291.03;6206674;23;20004;-78
2022/01/16 23:24:15;;;;;;;0.93;0.50;;;;;;;7.24;65.19;102301.97;6207135;23;20011;-78
2022/01/16 23:26:42;;;;;;;0.75;0.32;;;;;;;7.14;65.88;102288.69;6190396;23;20084;-79
2022/01/16 23:29:09;;;;;;;2.00;0.63;;;;;;;7.27;65.84;102303.44;6191181;23;20011;-78
2022/01/16 23:31:42;;;;;;;0.55;0.30;;;;;;;7.16;64.90;102305.66;6189802;23;20092;-78
2022/01/16 23:34:08;;;;;;;0.45;0.10;;;;;;;6.95;65.07;102297.53;6166134;23;20005;-75
2022/01/16 23:36:38;;;;;;;3.13;0.77;;;;;;;6.83;65.37;102302.66;6188571;23;20094;-75
2022/01/16 23:39:06;;;;;;;1.85;0.50;;;;;;;6.71;65.10;102305.06;6213202;23;20026;-75
2022/01/16 23:41:35;;;;;;;11.75;1.00;;;;;;;6.60;64.85;102309.13;6190553;23;20001;-78
2022/01/16 23:44:04;;;;;;;1.27;0.68;;;;;;;6.36;65.16;102302.19;6163163;23;20004;-75
2022/01/16 23:46:32;;;;;;;2.92;1.05;;;;;;;6.20;65.85;102292.38;6190128;23;20028;-75
2022/01/16 23:49:01;;;;;;;4.03;0.80;;;;;;;6.17;66.04;102319.09;6140781;23;20043;-75
2022/01/16 23:51:28;;;;;;;3.40;0.88;;;;;;;6.03;66.12;102318.94;6190498;23;20005;-77
2022/01/16 23:54:06;;;;;;;3.75;0.85;;;;;;;5.90;65.86;102310.59;6189096;23;20000;-74
2022/01/16 23:56:40;;;;;;;3.45;0.90;;;;;;;5.87;65.89;102324.53;6186852;23;20024;-73
2022/01/16 23:59:07;;;;;;;2.20;0.90;;;;;;;5.80;66.47;102331.72;6165511;23;20017;-75
